KANW/ANW METAR and TAF weather

Enter ICAO airport designator
Station Type Date Time Source
KANW METAR 2019/05/26 01:55 UTC NOAA

KANW 260155Z AUTO 09008KT 1SM HZ VV007 16/09 A3001 RMK AO2 T01590091


Station Type Date Time Source
KANW Decoded METAR 2019/05/26 01:55 UTC NOAA

Ainsworth Municipal, NE, United States (KANW) 42-35N 100-00W
May 25, 2019 - 09:55 PM EDT / 2019.05.26 0155 UTC
Wind: from the E (090 degrees) at 9 MPH (8 KT):0
Visibility: 1 mile(s):0
Sky conditions: obscured
Weather: haze
Temperature: 60.6 F (15.9 C)
Dew Point: 48.4 F (9.1 C)
Relative Humidity: 63%
Pressure (altimeter): 30.01 in. Hg (1016 hPa)
ob: KANW 260155Z AUTO 09008KT 1SM HZ VV007 16/09 A3001 RMK AO2 T01590091
cycle: 2

Station Type Date Time Source
KANW TAF UTC NOAA

Error!

Example: see airport list